Richmond (North Yorkshire), United Kingdom
Current Conditions -  °F | °C
As of 6:50 PM on Tuesday 21 Oct 2014 (Local Time) from EGXE Reporting Station
Clear Clear  
Wind Chill: 35°   Ceiling: Unl
Heat Index: 45°   Visibility: 6mi
Dew Point: 34°   Wind: 25mph
Humidity: 66%   Direction: 300°WNW
Pressure: 29.8"   Gusts: NA
Location:  54.41°N, 1.74°W
Report Text: EGXE 211750Z AUTO 30022KT 9999 NCD 07/01 Q1009
Loading
Personal Weather Stations






























Interactive Weather Map
Tropical Storm Tracking
New forecast layout! Learn more

10-Day Weather Forecast

Advertisements
Track Severe Weather on mobile